Time;durP1;ratioP1;P1;durP2;ratioP2;P2;SDS_P1;SDS_P2;PMS_P1;PMS_P2;Temp;Humidity;BMP_temperature;BMP_pressure;BME280_temperature;BME280_humidity;BME280_pressure;Samples;Min_cycle;Max_cycle;Signal;HPM_P1;HPM_P2
2023/09/25 00:01:24;;;;;;;;;;;;;;;25.09;45.45;100908.98;108925;1266;67804;-89
2023/09/25 00:03:50;;;;;;;;;;;;;;;25.09;45.56;100910.69;108934;1269;67716;-90
2023/09/25 00:06:16;;;;;;;;;;;;;;;25.09;45.59;100909.45;108947;1265;67411;-89
2023/09/25 00:08:41;;;;;;;;;;;;;;;25.09;45.63;100911.10;109024;1266;66941;-90
2023/09/25 00:11:08;;;;;;;;;;;;;;;25.09;45.62;100905.13;109011;1266;67614;-89
2023/09/25 00:13:34;;;;;;;;;;;;;;;25.09;45.44;100904.98;108994;1266;67669;-89
2023/09/25 00:16:02;;;;;;;;;;;;;;;25.09;45.51;100905.39;108888;1265;67707;-89
2023/09/25 00:18:28;;;;;;;;;;;;;;;25.08;45.67;100910.19;108945;1263;67793;-89
2023/09/25 00:23:38;;;;;;;;;;;;;;;25.08;45.49;100916.11;108936;1267;67488;-89
2023/09/25 00:26:04;;;;;;;;;;;;;;;25.08;45.64;100915.38;108877;1266;67532;-89
2023/09/25 00:28:31;;;;;;;;;;;;;;;25.08;45.62;100916.20;108971;1266;67081;-89
2023/09/25 00:30:56;;;;;;;;;;;;;;;25.08;45.65;100913.39;108920;1266;67617;-89
2023/09/25 00:33:22;;;;;;;;;;;;;;;25.07;45.64;100913.33;108935;1266;67581;-89
2023/09/25 00:35:48;;;;;;;;;;;;;;;25.08;45.57;100915.90;108914;1266;67561;-90
2023/09/25 00:38:14;;;;;;;;;;;;;;;25.08;45.68;100913.21;108966;1266;74459;-89
2023/09/25 00:40:40;;;;;;;;;;;;;;;25.07;45.67;100916.02;108859;1266;67324;-90
2023/09/25 00:43:05;;;;;;;;;;;;;;;25.07;45.59;100916.57;108906;1266;68049;-89
2023/09/25 00:45:32;;;;;;;;;;;;;;;25.08;45.68;100917.75;108943;1266;67531;-90
2023/09/25 00:47:58;;;;;;;;;;;;;;;25.07;45.63;100917.13;108935;1271;67691;-89
2023/09/25 00:50:29;;;;;;;;;;;;;;;25.07;45.59;100917.55;108934;1267;67620;-89
2023/09/25 00:52:55;;;;;;;;;;;;;;;25.07;45.70;100918.27;108974;1268;67657;-89
2023/09/25 00:55:20;;;;;;;;;;;;;;;25.07;45.73;100918.37;108929;1267;67836;-89
2023/09/25 00:57:48;;;;;;;;;;;;;;;25.06;45.72;100916.17;108904;1269;67712;-89
2023/09/25 01:00:14;;;;;;;;;;;;;;;25.06;45.75;100918.44;108970;1266;67541;-89
2023/09/25 01:02:40;;;;;;;;;;;;;;;25.06;45.79;100917.56;108902;1268;67903;-89
2023/09/25 01:05:09;;;;;;;;;;;;;;;25.05;45.72;100919.05;108944;1267;67680;-89
2023/09/25 01:07:35;;;;;;;;;;;;;;;25.05;45.70;100914.52;108900;1267;67132;-89
2023/09/25 01:10:14;;;;;;;;;;;;;;;25.06;45.79;100921.37;108897;1266;67712;-90
2023/09/25 01:12:40;;;;;;;;;;;;;;;25.05;46.02;100920.34;108933;1265;70667;-89
2023/09/25 01:15:06;;;;;;;;;;;;;;;25.05;45.85;100924.27;108936;1265;67974;-89
2023/09/25 01:17:32;;;;;;;;;;;;;;;25.05;46.03;100925.69;108866;1266;67651;-89
2023/09/25 01:19:58;;;;;;;;;;;;;;;25.05;45.87;100924.27;108851;1265;67710;-89
2023/09/25 01:22:23;;;;;;;;;;;;;;;25.04;45.82;100925.19;108905;1266;67000;-90
2023/09/25 01:24:49;;;;;;;;;;;;;;;25.04;45.94;100925.45;108940;1266;67566;-89
2023/09/25 01:27:16;;;;;;;;;;;;;;;25.05;45.86;100926.06;108934;1263;67784;-90
2023/09/25 01:32:12;;;;;;;;;;;;;;;25.04;46.09;100925.56;109110;1266;67650;-90
2023/09/25 01:34:38;;;;;;;;;;;;;;;25.04;46.01;100925.86;108953;1266;67774;-90
2023/09/25 01:37:04;;;;;;;;;;;;;;;25.04;45.91;100922.98;108829;1267;67924;-90
2023/09/25 01:39:31;;;;;;;;;;;;;;;25.04;45.93;100926.39;108874;1265;67722;-90
2023/09/25 01:41:57;;;;;;;;;;;;;;;25.03;46.01;100926.23;108923;1265;67632;-89
2023/09/25 01:44:25;;;;;;;;;;;;;;;25.02;45.99;100927.14;108896;1267;67781;-90
2023/09/25 01:46:52;;;;;;;;;;;;;;;25.03;46.05;100928.57;109098;1266;68377;-91
2023/09/25 01:49:17;;;;;;;;;;;;;;;25.02;46.02;100932.17;108853;1269;67752;-90
2023/09/25 01:51:43;;;;;;;;;;;;;;;25.02;45.95;100930.23;108890;1266;67008;-90
2023/09/25 01:54:09;;;;;;;;;;;;;;;25.02;46.09;100932.29;108904;1263;67401;-90
2023/09/25 02:02:15;;;;;;;;;;;;;;;25.01;46.05;100941.81;108964;1266;75371;-89
2023/09/25 02:04:41;;;;;;;;;;;;;;;25.02;46.09;100941.45;108898;1265;67608;-89
2023/09/25 02:07:07;;;;;;;;;;;;;;;25.01;46.02;100940.01;108901;1266;67674;-89
2023/09/25 02:09:32;;;;;;;;;;;;;;;25.01;46.12;100940.42;108883;1266;67733;-89
2023/09/25 02:11:58;;;;;;;;;;;;;;;25.01;46.25;100939.13;108928;1266;67618;-89
2023/09/25 02:14:24;;;;;;;;;;;;;;;25.01;46.05;100939.85;108894;1269;67683;-89
2023/09/25 02:16:51;;;;;;;;;;;;;;;25.01;46.01;100940.22;108866;1266;67871;-89
2023/09/25 02:19:18;;;;;;;;;;;;;;;25.01;45.80;100939.50;109098;1264;67593;-89
2023/09/25 02:21:44;;;;;;;;;;;;;;;25.00;46.11;100933.53;108950;1264;67592;-89
2023/09/25 02:24:10;;;;;;;;;;;;;;;25.00;46.27;100931.84;109024;1266;67778;-89
2023/09/25 02:29:14;;;;;;;;;;;;;;;25.00;46.20;100936.30;108998;1266;66982;-89
2023/09/25 02:31:40;;;;;;;;;;;;;;;25.00;46.16;100934.77;108881;1266;67683;-89
2023/09/25 02:34:06;;;;;;;;;;;;;;;25.00;46.06;100939.97;108944;1268;67704;-89
2023/09/25 02:36:33;;;;;;;;;;;;;;;24.99;46.04;100939.77;108954;1264;67677;-89
2023/09/25 02:38:58;;;;;;;;;;;;;;;24.99;45.95;100941.93;109030;1264;67464;-89
2023/09/25 02:44:07;;;;;;;;;;;;;;;24.99;46.20;100944.61;108999;1266;67432;-89
2023/09/25 02:46:33;;;;;;;;;;;;;;;24.98;46.19;100946.84;108966;1264;67938;-90
2023/09/25 02:48:58;;;;;;;;;;;;;;;24.98;46.26;100945.13;109189;1264;67770;-90
2023/09/25 02:51:25;;;;;;;;;;;;;;;24.98;46.18;100943.59;108977;1266;66994;-89
2023/09/25 02:53:50;;;;;;;;;;;;;;;24.98;46.03;100944.98;109030;1271;67306;-89
2023/09/25 02:56:16;;;;;;;;;;;;;;;24.97;46.04;100948.85;109112;1264;67309;-89
2023/09/25 02:58:42;;;;;;;;;;;;;;;24.97;46.14;100947.77;109232;1264;75334;-89
2023/09/25 03:01:08;;;;;;;;;;;;;;;24.97;46.48;100952.14;109003;1266;66950;-89
2023/09/25 06:03:31;;;;;;;;;;;;;;;24.45;47.24;101098.39;109019;1267;71362;-91
2023/09/25 06:12:23;;;;;;;;;;;;;;;24.47;47.46;101102.10;108974;1266;67963;-90
2023/09/25 06:17:42;;;;;;;;;;;;;;;24.48;47.19;101107.70;109012;1266;73808;-92
2023/09/25 10:05:10;;;;;;;;;;;;;;;25.21;43.35;101113.35;108799;1266;533192;-94
2023/09/25 10:07:55;;;;;;;;;;;;;;;25.23;43.28;101114.64;108960;1266;67076;-89
2023/09/25 10:10:26;;;;;;;;;;;;;;;25.23;43.54;101114.23;108932;1270;67688;-88
2023/09/25 10:15:33;;;;;;;;;;;;;;;25.24;43.24;101106.95;109041;1265;67072;-88
2023/09/25 10:20:41;;;;;;;;;;;;;;;25.23;43.24;101106.34;109025;1265;68178;-88
2023/09/25 10:23:06;;;;;;;;;;;;;;;25.24;43.28;101104.74;108928;1266;67583;-89
2023/09/25 10:51:22;;;;;;;;;;;;;;;25.27;42.95;101097.45;109101;1265;66949;-90
2023/09/25 10:53:48;;;;;;;;;;;;;;;25.28;42.65;101100.49;109027;1268;67380;-91
2023/09/25 11:28:07;;;;;;;;;;;;;;;25.36;41.80;101092.99;108493;1264;73786;-90
2023/09/25 12:43:16;;;;;;;;;;;;;;;25.43;40.14;101061.17;109125;1266;72026;-89
2023/09/25 13:21:40;;;;;;;;;;;;;;;25.45;39.33;101059.92;109025;1264;67298;31
2023/09/25 15:29:17;;;;;;;;;;;;;;;25.55;37.34;101055.95;108920;1266;72286;-93
2023/09/25 16:14:54;;;;;;;;;;;;;;;;;;;;;
2023/09/25 16:20:48;;;;;;;;;;;;;;;25.42;36.55;101063.23;109154;1265;67841;31
2023/09/25 22:32:14;;;;;;;;;;;;;;;25.04;35.90;101143.38;109333;1264;66926;-93
2023/09/25 22:46:41;;;;;;;;;;;;;;;25.03;35.76;101138.83;109505;1264;67686;31
2023/09/25 22:56:11;;;;;;;;;;;;;;;25.02;35.97;101140.43;109379;1264;66787;-92
2023/09/25 23:37:50;;;;;;;;;;;;;;;24.98;35.58;101126.04;109031;1266;71287;-91
